CA-0475 weather

Dugan Lake Air Strip
British Columbia, Canada

Public forecast

Using degrees Celsius for public forecast. Weather courtesy of forecast.io.

METAR (pilot weather report)

Closest report is Williams Lake Airport, 3.7 nm (6.8 km) WSW. Retrieved 2019/08/19 22:00 UTC (50 minutes ago):

CYWL 192200Z 10004KT 080V160 15SM BKN065 BKN220 20/05 A2994 RMK CU5CI2 SLP142 DENSITY ALT 4400FT

TAF (pilot weather forecast)

Closest forecast is Williams Lake Airport, 3.7 nm (6.8 km) WSW. Retrieved 2019/08/19 19:42 UTC (3 hours ago):

TAF CYWL 191838Z 1919/2007 02006KT P6SM SCT050 SCT120 BECMG 1919/1921 12005KT FM200100 08006KT P6SM SCT050 BKN100 BECMG 2004/2006 VRB03KT RMK NXT FCST BY 200100Z